Filia Ariea — PIET — position and weather

sailwx.info

Track history (hours):
 
Tides and Currents Weather Stations Pressure Air Temp Water Temp Dewpoint Dewpoint Depression Visibility Wind Speed Wind Dir Waves Ship Positions

Filia Ariea

Last reported at 2014-Oct-31 11:27 UTC. Time now 2014-Oct-31 14:06 UTC.
Position N 47°42' W 006°25'.

Length 90 m; draft 3.4 m.

Type: Cargo ship. MMSI: 244662000.

Date/timePositionNaut miles runAvg speedWind from/ knotsBaromVisibWave heightAir tempDewpointWater temp
2014-Oct-31 11:27N 47°42' W 006°25'9411.9
2014-Oct-31 03:33N 46°19' W 007°29'1212.1
2014-Oct-31 02:33N 46°08' W 007°37'1211.3
2014-Oct-31 01:32N 45°58' W 007°45'  
2014-Oct-28 01:28N 32°41' W 013°44'1011.1
2014-Oct-28 00:32N 32°31' W 013°48'1411.3
2014-Oct-27 23:20N 32°18' W 013°53'  
2014-Oct-24 18:04N 32°19' W 013°47'36912.5
2014-Oct-23 12:32N 38°17' W 011°56'1212.1
2014-Oct-23 11:33N 38°29' W 011°53'1311.9
2014-Oct-23 10:28N 38°41' W 011°49'7612.1
2014-Oct-23 04:12N 39°54' W 011°21'  
Track history (hours):
 
Tides and Currents Weather Stations Pressure Air Temp Water Temp Dewpoint Dewpoint Depression Visibility Wind Speed Wind Dir Waves Ship Positions

Filia Ariea

Last reported at 2014-Oct-31 11:27 UTC. Time now 2014-Oct-31 14:06 UTC.
Position N 47°42' W 006°25'.

Length 90 m; draft 3.4 m.

Type: Cargo ship. MMSI: 244662000.

Date/timePositionNaut miles runAvg speedWind from/ knotsBaromVisibWave heightAir tempDewpointWater temp
2014-Oct-31 11:27N 47°42' W 006°25'9411.9
2014-Oct-31 03:33N 46°19' W 007°29'1212.1
2014-Oct-31 02:33N 46°08' W 007°37'1211.3
2014-Oct-31 01:32N 45°58' W 007°45'  
2014-Oct-28 01:28N 32°41' W 013°44'1011.1
2014-Oct-28 00:32N 32°31' W 013°48'1411.3
2014-Oct-27 23:20N 32°18' W 013°53'  
2014-Oct-24 18:04N 32°19' W 013°47'36912.5
2014-Oct-23 12:32N 38°17' W 011°56'1212.1
2014-Oct-23 11:33N 38°29' W 011°53'1311.9
2014-Oct-23 10:28N 38°41' W 011°49'7612.1
2014-Oct-23 04:12N 39°54' W 011°21'  

Dump ship's entire track history